createdAt,value
2022-11-29T00:01:17.803Z,100654.50
2022-11-29T00:03:44.834Z,100649.28
2022-11-29T00:06:14.340Z,100651.91
2022-11-29T00:08:42.065Z,100641.44
2022-11-29T00:11:11.668Z,100661.41
2022-11-29T00:13:38.483Z,100654.50
2022-11-29T00:16:07.801Z,100652.75
2022-11-29T00:18:34.750Z,100657.03
2022-11-29T00:21:07.965Z,100656.22
2022-11-29T00:23:35.255Z,100660.47
2022-11-29T00:26:06.432Z,100659.69
2022-11-29T00:28:33.906Z,100662.19
2022-11-29T00:31:00.932Z,100653.69
2022-11-29T00:33:27.660Z,100640.63
2022-11-29T00:35:54.348Z,100649.25
2022-11-29T00:38:21.092Z,100648.34
2022-11-29T00:40:52.144Z,100662.19
2022-11-29T00:43:18.832Z,100647.56
2022-11-29T00:45:45.567Z,100633.75
2022-11-29T00:48:12.274Z,100652.66
2022-11-29T00:50:38.991Z,100650.03
2022-11-29T00:53:05.634Z,100662.13
2022-11-29T00:55:32.299Z,100654.47
2022-11-29T00:57:58.875Z,100646.66
2022-11-29T01:00:25.495Z,100662.25
2022-11-29T01:02:52.124Z,100656.16
2022-11-29T01:05:18.875Z,100653.63
2022-11-29T01:07:45.724Z,100643.25
2022-11-29T01:10:12.503Z,100657.91
2022-11-29T01:12:39.984Z,100650.09
2022-11-29T01:15:08.252Z,100645.75
2022-11-29T01:17:35.974Z,100646.53
2022-11-29T01:20:03.532Z,100637.94
2022-11-29T01:22:30.322Z,100638.84
2022-11-29T01:24:57.009Z,100644.00
2022-11-29T01:27:23.686Z,100637.88
2022-11-29T01:29:50.358Z,100646.50
2022-11-29T01:32:17.007Z,100644.69
2022-11-29T01:34:43.833Z,100653.31
2022-11-29T01:37:10.687Z,100645.53
2022-11-29T01:39:37.553Z,100661.97
2022-11-29T01:42:04.610Z,100649.94
2022-11-29T01:44:31.224Z,100655.94
2022-11-29T01:46:58.348Z,100649.88
2022-11-29T01:49:35.053Z,100650.78
2022-11-29T01:52:07.054Z,100658.50
2022-11-29T01:54:39.578Z,100653.38
2022-11-29T01:57:07.929Z,100649.06
2022-11-29T01:59:37.348Z,100646.38
2022-11-29T02:02:16.062Z,100645.56
2022-11-29T02:04:44.159Z,100646.41
2022-11-29T02:07:11.144Z,100641.25
2022-11-29T02:09:37.834Z,100637.84
2022-11-29T02:12:25.745Z,100633.47
2022-11-29T02:15:26.176Z,100633.50
2022-11-29T02:18:05.088Z,100628.34
2022-11-29T02:21:09.370Z,100639.53
2022-11-29T02:23:39.555Z,100637.75
2022-11-29T02:26:32.172Z,100640.44
2022-11-29T02:29:20.303Z,100644.75
2022-11-29T02:31:58.941Z,100652.53
2022-11-29T02:34:34.573Z,100649.94
2022-11-29T02:37:16.315Z,100646.41
2022-11-29T02:40:00.896Z,100641.16
2022-11-29T02:42:54.112Z,100640.22
2022-11-29T02:45:43.962Z,100655.75
2022-11-29T02:48:29.102Z,100648.00
2022-11-29T02:51:22.169Z,100654.91
2022-11-29T02:53:59.341Z,100653.19
2022-11-29T02:56:50.757Z,100653.16
2022-11-29T02:59:27.377Z,100640.16
2022-11-29T03:02:26.907Z,100638.44
2022-11-29T03:05:08.383Z,100645.28
2022-11-29T03:07:53.666Z,100641.75
2022-11-29T03:10:29.293Z,100646.84
2022-11-29T03:12:57.184Z,100641.66
2022-11-29T03:15:34.069Z,100648.63
2022-11-29T03:18:27.137Z,100637.47
2022-11-29T03:21:20.611Z,100641.72
2022-11-29T03:23:54.861Z,100642.66
2022-11-29T03:26:27.062Z,100648.63
2022-11-29T03:29:08.152Z,100637.22
2022-11-29T03:31:37.772Z,100658.97
2022-11-29T03:34:57.348Z,100656.44
2022-11-29T03:37:29.937Z,100667.47
2022-11-29T03:40:04.499Z,100662.31
2022-11-29T03:42:57.270Z,100662.38
2022-11-29T03:45:39.438Z,100663.19
2022-11-29T03:48:17.432Z,100660.53
2022-11-29T03:50:55.126Z,100662.31
2022-11-29T03:53:39.661Z,100662.31
2022-11-29T03:56:42.346Z,100674.34
2022-11-29T03:59:29.587Z,100666.66
2022-11-29T04:02:27.274Z,100677.91
2022-11-29T04:05:09.058Z,100690.88
2022-11-29T04:07:44.848Z,100689.16
2022-11-29T04:10:23.498Z,100681.50
2022-11-29T04:13:08.554Z,100687.53
2022-11-29T04:15:53.676Z,100688.25
2022-11-29T04:18:36.913Z,100681.38
2022-11-29T04:21:28.182Z,100679.41
2022-11-29T04:24:13.203Z,100673.44
2022-11-29T04:26:58.132Z,100669.25
2022-11-29T04:29:54.481Z,100647.44
2022-11-29T04:32:39.779Z,100676.09
2022-11-29T04:35:24.782Z,100677.78
2022-11-29T04:38:07.204Z,100668.31
2022-11-29T04:40:51.303Z,100659.66
2022-11-29T04:44:00.202Z,100682.81
2022-11-29T04:46:29.985Z,100685.34
2022-11-29T04:49:26.583Z,100675.88
2022-11-29T04:52:29.919Z,100670.69
2022-11-29T04:55:31.089Z,100689.63
2022-11-29T04:58:00.405Z,100688.69
2022-11-29T05:00:28.907Z,100675.75
2022-11-29T05:03:20.462Z,100687.84
2022-11-29T05:06:02.046Z,100674.81
2022-11-29T05:08:53.123Z,100677.44
2022-11-29T05:11:54.001Z,100684.50
2022-11-29T05:14:27.337Z,100674.16
2022-11-29T05:17:18.793Z,100696.38
2022-11-29T05:20:04.450Z,100702.53
2022-11-29T05:22:48.276Z,100692.09
2022-11-29T05:25:31.915Z,100700.75
2022-11-29T05:28:26.398Z,100698.94
2022-11-29T05:31:26.351Z,100693.84
2022-11-29T05:34:08.441Z,100689.53
2022-11-29T05:36:40.363Z,100704.97
2022-11-29T05:39:33.958Z,100711.94
2022-11-29T05:42:06.554Z,100718.91
2022-11-29T05:44:46.204Z,100723.28
2022-11-29T05:47:18.927Z,100722.31
2022-11-29T05:50:09.392Z,100698.88
2022-11-29T05:52:42.337Z,100725.78
2022-11-29T05:55:15.335Z,100732.66
2022-11-29T05:57:57.029Z,100737.00
2022-11-29T06:00:23.985Z,100717.06
2022-11-29T06:03:03.796Z,100738.47
2022-11-29T06:05:46.970Z,100741.00
2022-11-29T06:08:30.290Z,100742.78
2022-11-29T06:11:14.424Z,100755.75
2022-11-29T06:14:05.634Z,100763.66
2022-11-29T06:17:02.121Z,100763.69
2022-11-29T06:19:37.848Z,100762.81
2022-11-29T06:22:31.876Z,100756.59
2022-11-29T06:25:10.754Z,100764.47
2022-11-29T06:28:06.718Z,100761.84
2022-11-29T06:31:01.266Z,100766.09
2022-11-29T06:33:30.757Z,100769.56
2022-11-29T06:36:12.226Z,100769.63
2022-11-29T06:38:39.090Z,100763.50
2022-11-29T06:41:06.250Z,100751.38
2022-11-29T06:43:33.808Z,100763.53
2022-11-29T06:46:13.711Z,100763.63
2022-11-29T06:48:50.009Z,100755.84
2022-11-29T06:51:21.668Z,100764.56
2022-11-29T06:54:08.601Z,100767.75
2022-11-29T06:56:56.788Z,100768.72
2022-11-29T06:59:38.267Z,100776.53
2022-11-29T13:48:51.868Z,100770.34
2022-11-29T13:51:37.608Z,100785.00
2022-11-29T13:54:13.038Z,100785.72
2022-11-29T13:56:46.700Z,100787.44
2022-11-29T13:59:34.478Z,100784.06
2022-11-29T14:02:01.315Z,100782.28
2022-11-29T14:04:45.628Z,100775.28
2022-11-29T14:07:19.685Z,100770.97
2022-11-29T14:10:08.515Z,100762.63
2022-11-29T14:13:04.980Z,100764.34
2022-11-29T14:15:33.291Z,100745.38
2022-11-29T14:18:02.700Z,100752.31
2022-11-29T14:20:29.383Z,100747.19
2022-11-29T14:23:05.317Z,100737.72
2022-11-29T14:25:54.184Z,100734.31
2022-11-29T14:28:20.807Z,100735.22
2022-11-29T14:30:48.613Z,100741.03
2022-11-29T14:33:40.065Z,100735.88
2022-11-29T14:36:15.601Z,100733.31
2022-11-29T14:39:05.889Z,100730.72
2022-11-29T14:41:50.923Z,100724.63
2022-11-29T14:44:24.320Z,100723.81
2022-11-29T14:47:06.200Z,100727.31
2022-11-29T14:49:40.093Z,100729.13
2022-11-29T14:52:27.499Z,100727.50
2022-11-29T14:55:02.054Z,100724.88
2022-11-29T14:58:01.557Z,100724.81
2022-11-29T15:00:30.751Z,100719.66
2022-11-29T15:03:13.068Z,100718.84
2022-11-29T15:05:45.267Z,100719.63
2022-11-29T15:08:35.917Z,100722.16
2022-11-29T15:11:08.487Z,100725.69
2022-11-29T15:13:37.646Z,100729.22
2022-11-29T15:16:23.337Z,100732.72
2022-11-29T15:19:02.303Z,100725.78
2022-11-29T15:21:44.028Z,100735.22
2022-11-29T15:24:13.626Z,100728.22
2022-11-29T15:26:57.970Z,100719.47
2022-11-29T15:29:25.254Z,100726.41
2022-11-29T15:31:57.081Z,100728.88
2022-11-29T15:34:31.952Z,100728.00
2022-11-29T15:36:59.803Z,100731.41
2022-11-29T15:39:37.222Z,100729.75
2022-11-29T15:42:13.655Z,100713.31
2022-11-29T15:44:48.144Z,100732.25
2022-11-29T15:47:25.764Z,100727.13
2022-11-29T15:49:53.939Z,100717.69
2022-11-29T15:52:28.219Z,100728.03
2022-11-29T18:52:59.369Z,100830.00
2022-11-29T18:55:27.706Z,100828.16
2022-11-29T18:57:55.202Z,100818.72
2022-11-29T19:00:22.142Z,100805.00
2022-11-29T19:02:48.928Z,100822.34
2022-11-29T19:05:15.849Z,100830.97
2022-11-29T19:07:42.569Z,100814.47
2022-11-29T19:10:09.601Z,100805.91
2022-11-29T19:12:36.871Z,100826.63
2022-11-29T19:15:04.150Z,100810.31
2022-11-29T19:17:30.949Z,100790.47
2022-11-29T19:19:58.531Z,100804.09
2022-11-29T19:22:27.123Z,100766.16
2022-11-29T19:24:55.650Z,100783.38
2022-11-29T19:27:22.686Z,100762.72
2022-11-29T19:29:51.149Z,100760.13
2022-11-29T19:32:17.891Z,100765.44
2022-11-29T19:34:44.596Z,100764.50
2022-11-29T19:37:11.278Z,100756.66
2022-11-29T19:39:38.991Z,100748.97
2022-11-29T19:42:05.842Z,100745.41
2022-11-29T19:44:48.274Z,100739.56
2022-11-29T19:47:19.248Z,100749.78
2022-11-29T19:49:46.952Z,100762.78
2022-11-29T19:52:13.694Z,100754.09
2022-11-29T19:54:40.358Z,100743.94
2022-11-29T19:57:07.028Z,100751.53
2022-11-29T19:59:33.970Z,100742.91
2022-11-29T20:02:00.658Z,100749.75
2022-11-29T20:04:27.377Z,100746.41
2022-11-29T20:06:54.845Z,100760.19
2022-11-29T20:09:24.697Z,100756.84
2022-11-29T20:11:51.306Z,100760.03
2022-11-29T20:14:17.894Z,100753.13
2022-11-29T20:16:44.820Z,100747.03
2022-11-29T20:19:13.223Z,100754.88
2022-11-29T20:21:45.446Z,100749.75
2022-11-29T20:24:13.113Z,100754.84
2022-11-29T20:26:43.346Z,100748.00
2022-11-29T20:29:10.637Z,100745.41
2022-11-29T20:31:41.121Z,100758.38
2022-11-29T20:34:14.252Z,100758.22
2022-11-29T20:37:10.550Z,100760.97
2022-11-29T20:39:50.698Z,100756.72
2022-11-29T20:42:29.649Z,100766.06
2022-11-29T20:45:00.968Z,100758.13
2022-11-29T20:47:52.161Z,100765.75
2022-11-29T20:50:23.563Z,100750.97
2022-11-29T20:52:52.323Z,100764.88
2022-11-29T20:55:19.060Z,100751.84
2022-11-29T20:57:45.959Z,100751.88
2022-11-29T21:00:13.511Z,100755.25
2022-11-29T21:02:40.153Z,100752.66
2022-11-29T21:05:07.297Z,100751.81
2022-11-29T21:07:34.413Z,100765.66
2022-11-29T21:10:01.854Z,100758.78
2022-11-29T21:12:30.247Z,100760.53
2022-11-29T21:14:57.884Z,100763.97
2022-11-29T21:17:28.745Z,100769.81
2022-11-29T21:19:59.976Z,100760.31
2022-11-29T21:22:38.709Z,100757.75
2022-11-29T21:25:30.348Z,100753.28
2022-11-29T21:27:57.376Z,100767.00
2022-11-29T21:30:25.034Z,100759.28
2022-11-29T21:32:52.256Z,100767.00
2022-11-29T21:35:18.982Z,100759.38
2022-11-29T21:37:46.279Z,100752.38
2022-11-29T21:40:14.024Z,100758.56
2022-11-29T21:42:40.756Z,100758.50
2022-11-29T21:45:13.423Z,100760.31
2022-11-29T21:47:42.245Z,100764.63
2022-11-29T21:50:09.348Z,100757.69
2022-11-29T21:52:36.107Z,100753.44
2022-11-29T21:55:02.979Z,100755.31
2022-11-29T21:57:29.643Z,100761.34
2022-11-29T21:59:56.288Z,100758.78
2022-11-29T22:02:23.160Z,100759.47
2022-11-29T22:04:53.277Z,100764.84
2022-11-29T22:07:19.955Z,100763.13
2022-11-29T22:09:46.628Z,100771.81
2022-11-29T22:12:33.013Z,100765.03
2022-11-29T22:15:00.298Z,100764.84
2022-11-29T22:17:26.904Z,100747.75
2022-11-29T22:19:53.510Z,100751.22
2022-11-29T22:22:20.128Z,100766.03
2022-11-29T22:24:47.001Z,100761.56
2022-11-29T22:27:13.920Z,100743.25
2022-11-29T22:29:40.643Z,100758.13
2022-11-29T22:32:07.320Z,100731.38
2022-11-29T22:34:34.076Z,100757.41
2022-11-29T22:37:00.715Z,100737.47
2022-11-29T22:39:27.356Z,100740.22
2022-11-29T22:41:55.221Z,100754.09
2022-11-29T22:44:23.171Z,100758.41
2022-11-29T22:46:50.092Z,100739.31
2022-11-29T22:49:16.902Z,100754.06
2022-11-29T22:51:43.798Z,100754.19
2022-11-29T22:54:11.921Z,100752.94
2022-11-29T22:56:40.935Z,100761.69
2022-11-29T22:59:07.949Z,100758.28
2022-11-29T23:01:36.220Z,100753.00
2022-11-29T23:04:06.069Z,100752.16
2022-11-29T23:06:38.234Z,100749.63
2022-11-29T23:09:16.044Z,100755.56
2022-11-29T23:11:46.372Z,100746.13
2022-11-29T23:14:13.359Z,100745.28
2022-11-29T23:16:40.652Z,100747.91
2022-11-29T23:19:07.344Z,100733.28
2022-11-29T23:21:38.823Z,100743.56
2022-11-29T23:24:06.206Z,100749.66
2022-11-29T23:26:40.058Z,100745.28
2022-11-29T23:29:08.782Z,100752.16
2022-11-29T23:31:35.570Z,100726.38
2022-11-29T23:34:02.986Z,100749.72
2022-11-29T23:36:29.605Z,100723.75
2022-11-29T23:38:56.196Z,100743.78
2022-11-29T23:41:23.043Z,100750.50
2022-11-29T23:43:49.729Z,100746.16
2022-11-29T23:46:19.480Z,100739.19
2022-11-29T23:48:46.255Z,100755.72
2022-11-29T23:51:13.531Z,100754.06
2022-11-29T23:53:41.048Z,100758.28
2022-11-29T23:56:10.616Z,100751.25
2022-11-29T23:58:38.140Z,100760.53
